sensor_id;sensor_type;location;lat;lon;timestamp;pressure;altitude;pressure_sealevel;temperature;humidity
54270;BME280;40181;51.560;13.000;2022-11-23T00:01:51;99436.94;;;1.52;98.90
54270;BME280;40181;51.560;13.000;2022-11-23T00:04:20;99436.28;;;1.58;98.75
54270;BME280;40181;51.560;13.000;2022-11-23T00:06:52;99431.91;;;1.57;98.81
54270;BME280;40181;51.560;13.000;2022-11-23T00:09:21;99435.31;;;1.55;98.63
54270;BME280;40181;51.560;13.000;2022-11-23T00:11:50;99444.81;;;1.56;98.82
54270;BME280;40181;51.560;13.000;2022-11-23T00:14:19;99436.28;;;1.58;98.16
54270;BME280;40181;51.560;13.000;2022-11-23T00:16:48;99438.38;;;1.43;98.45
54270;BME280;40181;51.560;13.000;2022-11-23T00:19:17;99430.69;;;1.46;99.14
54270;BME280;40181;51.560;13.000;2022-11-23T00:21:49;99438.09;;;1.35;99.38
54270;BME280;40181;51.560;13.000;2022-11-23T00:24:19;99439.84;;;1.34;99.47
54270;BME280;40181;51.560;13.000;2022-11-23T00:26:48;99441.53;;;1.34;99.13
54270;BME280;40181;51.560;13.000;2022-11-23T00:29:17;99449.44;;;1.38;99.24
54270;BME280;40181;51.560;13.000;2022-11-23T00:31:47;99443.81;;;1.24;99.70
54270;BME280;40181;51.560;13.000;2022-11-23T00:34:16;99454.38;;;1.31;99.38
54270;BME280;40181;51.560;13.000;2022-11-23T00:36:45;99443.81;;;1.24;100.00
54270;BME280;40181;51.560;13.000;2022-11-23T00:39:17;99445.84;;;1.33;99.50
54270;BME280;40181;51.560;13.000;2022-11-23T00:41:46;99444.94;;;1.33;99.11
54270;BME280;40181;51.560;13.000;2022-11-23T00:44:15;99450.81;;;1.27;99.39
54270;BME280;40181;51.560;13.000;2022-11-23T00:46:45;99440.91;;;1.41;98.55
54270;BME280;40181;51.560;13.000;2022-11-23T00:49:14;99451.25;;;1.41;98.14
54270;BME280;40181;51.560;13.000;2022-11-23T00:51:43;99452.19;;;1.43;98.02
54270;BME280;40181;51.560;13.000;2022-11-23T00:54:15;99451.72;;;1.29;98.05
54270;BME280;40181;51.560;13.000;2022-11-23T00:56:44;99444.38;;;1.42;98.30
54270;BME280;40181;51.560;13.000;2022-11-23T00:59:13;99455.56;;;1.41;97.85
54270;BME280;40181;51.560;13.000;2022-11-23T01:01:43;99457.34;;;1.43;97.80
54270;BME280;40181;51.560;13.000;2022-11-23T01:04:12;99447.44;;;1.30;98.11
54270;BME280;40181;51.560;13.000;2022-11-23T01:06:41;99446.72;;;1.08;99.36
54270;BME280;40181;51.560;13.000;2022-11-23T01:09:15;99444.47;;;1.17;99.69
54270;BME280;40181;51.560;13.000;2022-11-23T01:11:49;99445.91;;;1.09;99.50
54270;BME280;40181;51.560;13.000;2022-11-23T01:14:19;99442.19;;;1.27;99.01
54270;BME280;40181;51.560;13.000;2022-11-23T01:16:48;99445.88;;;1.35;98.18
54270;BME280;40181;51.560;13.000;2022-11-23T01:19:19;99445.53;;;1.24;98.20
54270;BME280;40181;51.560;13.000;2022-11-23T01:21:49;99444.84;;;1.30;98.02
54270;BME280;40181;51.560;13.000;2022-11-23T01:24:22;99449.72;;;1.20;98.24
54270;BME280;40181;51.560;13.000;2022-11-23T01:26:52;99455.97;;;1.27;98.07
54270;BME280;40181;51.560;13.000;2022-11-23T01:29:23;99446.84;;;1.38;97.48
54270;BME280;40181;51.560;13.000;2022-11-23T01:31:55;99443.44;;;1.40;97.14
54270;BME280;40181;51.560;13.000;2022-11-23T01:34:24;99455.50;;;1.39;96.99
54270;BME280;40181;51.560;13.000;2022-11-23T01:36:53;99445.22;;;1.41;96.93
54270;BME280;40181;51.560;13.000;2022-11-23T01:39:25;99453.16;;;1.47;96.71
54270;BME280;40181;51.560;13.000;2022-11-23T01:41:54;99458.94;;;1.38;97.13
54270;BME280;40181;51.560;13.000;2022-11-23T01:44:28;99465.19;;;1.45;97.00
54270;BME280;40181;51.560;13.000;2022-11-23T01:47:00;99457.22;;;1.38;96.99
54270;BME280;40181;51.560;13.000;2022-11-23T01:49:32;99465.72;;;1.34;97.43
54270;BME280;40181;51.560;13.000;2022-11-23T01:52:06;99464.19;;;1.41;97.44
54270;BME280;40181;51.560;13.000;2022-11-23T01:54:43;99471.34;;;1.48;97.00
54270;BME280;40181;51.560;13.000;2022-11-23T01:57:17;99471.28;;;1.47;97.25
54270;BME280;40181;51.560;13.000;2022-11-23T01:59:50;99463.28;;;1.39;97.40
54270;BME280;40181;51.560;13.000;2022-11-23T02:02:20;99466.94;;;1.46;97.25
54270;BME280;40181;51.560;13.000;2022-11-23T02:04:50;99460.75;;;1.41;97.42
54270;BME280;40181;51.560;13.000;2022-11-23T02:07:20;99469.22;;;1.36;97.39
54270;BME280;40181;51.560;13.000;2022-11-23T02:09:53;99464.34;;;1.46;97.11
54270;BME280;40181;51.560;13.000;2022-11-23T02:12:22;99462.38;;;1.38;97.40
54270;BME280;40181;51.560;13.000;2022-11-23T02:14:52;99454.69;;;1.40;97.36
54270;BME280;40181;51.560;13.000;2022-11-23T02:17:21;99452.84;;;1.36;97.56
54270;BME280;40181;51.560;13.000;2022-11-23T02:19:56;99455.34;;;1.34;97.71
54270;BME280;40181;51.560;13.000;2022-11-23T02:22:36;99463.19;;;1.36;98.20
54270;BME280;40181;51.560;13.000;2022-11-23T02:25:21;99471.19;;;1.44;97.58
54270;BME280;40181;51.560;13.000;2022-11-23T02:27:59;99466.16;;;1.48;96.92
54270;BME280;40181;51.560;13.000;2022-11-23T02:30:30;99478.13;;;1.45;96.97
54270;BME280;40181;51.560;13.000;2022-11-23T02:33:03;99466.78;;;1.41;97.40
54270;BME280;40181;51.560;13.000;2022-11-23T02:35:33;99461.97;;;1.52;97.00
54270;BME280;40181;51.560;13.000;2022-11-23T02:38:04;99468.16;;;1.57;96.68
54270;BME280;40181;51.560;13.000;2022-11-23T02:40:35;99465.56;;;1.57;96.56
54270;BME280;40181;51.560;13.000;2022-11-23T02:43:06;99458.00;;;1.63;96.55
54270;BME280;40181;51.560;13.000;2022-11-23T02:45:38;99458.06;;;1.65;96.77
54270;BME280;40181;51.560;13.000;2022-11-23T02:48:10;99468.50;;;1.68;96.81
54270;BME280;40181;51.560;13.000;2022-11-23T02:50:40;99460.78;;;1.70;96.90
54270;BME280;40181;51.560;13.000;2022-11-23T02:53:09;99466.94;;;1.73;96.43
54270;BME280;40181;51.560;13.000;2022-11-23T02:55:39;99460.84;;;1.71;96.44
54270;BME280;40181;51.560;13.000;2022-11-23T02:58:11;99459.31;;;1.78;96.53
54270;BME280;40181;51.560;13.000;2022-11-23T03:00:40;99476.53;;;1.76;96.24
54270;BME280;40181;51.560;13.000;2022-11-23T03:03:09;99468.84;;;1.79;96.38
54270;BME280;40181;51.560;13.000;2022-11-23T03:05:39;99479.91;;;1.73;96.53
54270;BME280;40181;51.560;13.000;2022-11-23T03:08:08;99476.69;;;1.81;96.75
54270;BME280;40181;51.560;13.000;2022-11-23T03:10:37;99479.44;;;1.87;96.70
54270;BME280;40181;51.560;13.000;2022-11-23T03:13:06;99488.03;;;1.86;96.49
54270;BME280;40181;51.560;13.000;2022-11-23T03:15:38;99488.13;;;1.89;96.58
54270;BME280;40181;51.560;13.000;2022-11-23T03:18:07;99496.56;;;1.82;96.76
54270;BME280;40181;51.560;13.000;2022-11-23T03:20:38;99492.22;;;1.81;97.11
54270;BME280;40181;51.560;13.000;2022-11-23T03:23:07;99490.63;;;1.86;96.99
54270;BME280;40181;51.560;13.000;2022-11-23T03:25:36;99488.94;;;1.86;97.14
54270;BME280;40181;51.560;13.000;2022-11-23T03:28:06;99489.84;;;1.88;97.18
54270;BME280;40181;51.560;13.000;2022-11-23T03:30:38;99492.38;;;1.85;97.07
54270;BME280;40181;51.560;13.000;2022-11-23T03:33:07;99492.44;;;1.88;97.05
54270;BME280;40181;51.560;13.000;2022-11-23T03:35:36;99501.59;;;1.77;97.33
54270;BME280;40181;51.560;13.000;2022-11-23T03:38:06;99500.84;;;1.81;96.84
54270;BME280;40181;51.560;13.000;2022-11-23T03:40:36;99497.25;;;1.76;97.23
54270;BME280;40181;51.560;13.000;2022-11-23T03:43:06;99499.78;;;1.74;97.08
54270;BME280;40181;51.560;13.000;2022-11-23T03:45:38;99498.13;;;1.76;97.11
54270;BME280;40181;51.560;13.000;2022-11-23T03:48:07;99504.47;;;1.86;96.45
54270;BME280;40181;51.560;13.000;2022-11-23T03:50:37;99508.81;;;1.87;96.72
54270;BME280;40181;51.560;13.000;2022-11-23T03:53:06;99501.00;;;1.86;96.76
54270;BME280;40181;51.560;13.000;2022-11-23T03:55:35;99501.00;;;1.86;97.07
54270;BME280;40181;51.560;13.000;2022-11-23T03:58:05;99499.38;;;1.89;96.85
54270;BME280;40181;51.560;13.000;2022-11-23T04:00:34;99494.25;;;1.91;96.75
54270;BME280;40181;51.560;13.000;2022-11-23T04:03:06;99497.78;;;1.93;96.69
54270;BME280;40181;51.560;13.000;2022-11-23T04:05:36;99497.00;;;1.96;96.76
54270;BME280;40181;51.560;13.000;2022-11-23T04:08:05;99493.50;;;1.95;96.83
54270;BME280;40181;51.560;13.000;2022-11-23T04:10:34;99493.38;;;1.90;96.77
54270;BME280;40181;51.560;13.000;2022-11-23T04:13:04;99493.44;;;1.92;97.03
54270;BME280;40181;51.560;13.000;2022-11-23T04:15:33;99500.50;;;1.98;96.98
54270;BME280;40181;51.560;13.000;2022-11-23T04:18:06;99489.38;;;2.00;96.68
54270;BME280;40181;51.560;13.000;2022-11-23T04:20:35;99499.72;;;2.00;96.60
54270;BME280;40181;51.560;13.000;2022-11-23T04:23:05;99504.94;;;2.02;97.32
54270;BME280;40181;51.560;13.000;2022-11-23T04:25:34;99493.78;;;2.04;97.02
54270;BME280;40181;51.560;13.000;2022-11-23T04:28:03;99498.28;;;2.10;97.09
54270;BME280;40181;51.560;13.000;2022-11-23T04:30:33;99495.69;;;2.10;96.80
54270;BME280;40181;51.560;13.000;2022-11-23T04:33:02;99492.25;;;2.11;96.69
54270;BME280;40181;51.560;13.000;2022-11-23T04:35:35;99500.78;;;2.07;97.75
54270;BME280;40181;51.560;13.000;2022-11-23T04:38:04;99494.47;;;1.99;97.74
54270;BME280;40181;51.560;13.000;2022-11-23T04:40:34;99504.91;;;2.00;98.04
54270;BME280;40181;51.560;13.000;2022-11-23T04:43:03;99510.16;;;2.03;98.21
54270;BME280;40181;51.560;13.000;2022-11-23T04:45:37;99500.84;;;2.09;98.13
54270;BME280;40181;51.560;13.000;2022-11-23T04:48:09;99503.47;;;2.10;97.80
54270;BME280;40181;51.560;13.000;2022-11-23T04:50:38;99506.31;;;2.18;97.50
54270;BME280;40181;51.560;13.000;2022-11-23T04:53:08;99503.59;;;2.15;98.17
54270;BME280;40181;51.560;13.000;2022-11-23T04:55:37;99505.50;;;2.20;97.38
54270;BME280;40181;51.560;13.000;2022-11-23T04:58:07;99501.84;;;2.14;97.67
54270;BME280;40181;51.560;13.000;2022-11-23T05:00:36;99512.25;;;2.15;97.84
54270;BME280;40181;51.560;13.000;2022-11-23T05:03:05;99495.03;;;2.17;98.08
54270;BME280;40181;51.560;13.000;2022-11-23T05:05:37;99495.75;;;2.12;98.82
54270;BME280;40181;51.560;13.000;2022-11-23T05:08:07;99485.38;;;2.12;99.06
54270;BME280;40181;51.560;13.000;2022-11-23T05:10:37;99494.00;;;2.11;99.17
54270;BME280;40181;51.560;13.000;2022-11-23T05:13:06;99495.09;;;2.19;99.47
54270;BME280;40181;51.560;13.000;2022-11-23T05:15:35;99494.47;;;2.26;98.39
54270;BME280;40181;51.560;13.000;2022-11-23T05:18:06;99495.25;;;2.24;98.19
54270;BME280;40181;51.560;13.000;2022-11-23T05:20:38;99500.50;;;2.27;98.74
54270;BME280;40181;51.560;13.000;2022-11-23T05:23:08;99502.31;;;2.29;98.25
54270;BME280;40181;51.560;13.000;2022-11-23T05:25:38;99494.47;;;2.26;98.57
54270;BME280;40181;51.560;13.000;2022-11-23T05:28:08;99496.25;;;2.29;98.51
54270;BME280;40181;51.560;13.000;2022-11-23T05:30:43;99496.16;;;2.26;98.66
54270;BME280;40181;51.560;13.000;2022-11-23T05:33:15;99496.25;;;2.29;98.61
54270;BME280;40181;51.560;13.000;2022-11-23T05:35:45;99501.25;;;2.23;98.81
54270;BME280;40181;51.560;13.000;2022-11-23T05:38:14;99496.91;;;2.21;98.92
54270;BME280;40181;51.560;13.000;2022-11-23T05:40:44;99508.91;;;2.19;98.54
54270;BME280;40181;51.560;13.000;2022-11-23T05:43:13;99497.00;;;2.25;98.49
54270;BME280;40181;51.560;13.000;2022-11-23T05:45:43;99496.66;;;2.14;99.11
54270;BME280;40181;51.560;13.000;2022-11-23T05:48:15;99497.69;;;2.19;98.75
54270;BME280;40181;51.560;13.000;2022-11-23T05:50:45;99502.75;;;2.14;98.31
54270;BME280;40181;51.560;13.000;2022-11-23T05:53:17;99491.63;;;2.18;98.33
54270;BME280;40181;51.560;13.000;2022-11-23T05:55:47;99496.91;;;2.21;97.93
54270;BME280;40181;51.560;13.000;2022-11-23T05:58:20;99489.28;;;2.26;97.70
54270;BME280;40181;51.560;13.000;2022-11-23T06:00:49;99495.00;;;2.16;98.18
54270;BME280;40181;51.560;13.000;2022-11-23T06:03:21;99497.31;;;2.06;98.75
54270;BME280;40181;51.560;13.000;2022-11-23T06:05:51;99498.94;;;2.03;98.57
54270;BME280;40181;51.560;13.000;2022-11-23T06:08:20;99498.97;;;2.04;98.63
54270;BME280;40181;51.560;13.000;2022-11-23T06:10:50;99503.44;;;2.09;98.27
54270;BME280;40181;51.560;13.000;2022-11-23T06:13:19;99505.03;;;2.05;98.33
54270;BME280;40181;51.560;13.000;2022-11-23T06:15:49;99500.41;;;1.95;98.74
54270;BME280;40181;51.560;13.000;2022-11-23T06:18:21;99505.81;;;2.02;98.53
54270;BME280;40181;51.560;13.000;2022-11-23T06:20:50;99506.75;;;2.04;98.23
54270;BME280;40181;51.560;13.000;2022-11-23T06:23:20;99509.16;;;1.98;98.61
54270;BME280;40181;51.560;13.000;2022-11-23T06:25:51;99508.56;;;2.07;97.87
54270;BME280;40181;51.560;13.000;2022-11-23T06:28:20;99499.31;;;2.15;97.31
54270;BME280;40181;51.560;13.000;2022-11-23T06:30:49;99513.00;;;2.11;96.89
54270;BME280;40181;51.560;13.000;2022-11-23T06:33:21;99508.84;;;2.16;96.46
54270;BME280;40181;51.560;13.000;2022-11-23T06:35:52;99505.13;;;2.08;96.55
54270;BME280;40181;51.560;13.000;2022-11-23T06:38:22;99516.41;;;2.10;96.66
54270;BME280;40181;51.560;13.000;2022-11-23T06:40:51;99519.16;;;2.15;96.50
54270;BME280;40181;51.560;13.000;2022-11-23T06:43:21;99512.75;;;2.03;96.96
54270;BME280;40181;51.560;13.000;2022-11-23T06:45:50;99509.25;;;2.01;97.18
54270;BME280;40181;51.560;13.000;2022-11-23T06:48:22;99510.25;;;2.06;96.78
54270;BME280;40181;51.560;13.000;2022-11-23T06:50:52;99515.22;;;1.99;97.07
54270;BME280;40181;51.560;13.000;2022-11-23T06:53:21;99513.88;;;1.84;98.39
54270;BME280;40181;51.560;13.000;2022-11-23T06:55:51;99527.81;;;1.88;98.79
54270;BME280;40181;51.560;13.000;2022-11-23T06:58:20;99521.72;;;1.86;98.14
54270;BME280;40181;51.560;13.000;2022-11-23T07:00:50;99527.97;;;1.92;98.08
54270;BME280;40181;51.560;13.000;2022-11-23T07:03:23;99531.06;;;1.81;97.90
54270;BME280;40181;51.560;13.000;2022-11-23T07:05:52;99533.81;;;1.85;97.77
54270;BME280;40181;51.560;13.000;2022-11-23T07:08:22;99527.03;;;1.90;97.53
54270;BME280;40181;51.560;13.000;2022-11-23T07:10:51;99544.25;;;1.88;97.36
54270;BME280;40181;51.560;13.000;2022-11-23T07:13:21;99546.78;;;1.87;97.25
54270;BME280;40181;51.560;13.000;2022-11-23T07:15:50;99546.75;;;1.85;97.45
54270;BME280;40181;51.560;13.000;2022-11-23T07:18:22;99542.53;;;1.89;97.25
54270;BME280;40181;51.560;13.000;2022-11-23T07:20:52;99546.09;;;1.92;97.01
54270;BME280;40181;51.560;13.000;2022-11-23T07:23:24;99552.16;;;1.93;97.33
54270;BME280;40181;51.560;13.000;2022-11-23T07:25:54;99544.31;;;1.90;96.72
54270;BME280;40181;51.560;13.000;2022-11-23T07:28:23;99548.66;;;1.91;96.75
54270;BME280;40181;51.560;13.000;2022-11-23T07:30:53;99554.84;;;1.96;96.13
54270;BME280;40181;51.560;13.000;2022-11-23T07:33:25;99555.47;;;1.89;97.35
54270;BME280;40181;51.560;13.000;2022-11-23T07:35:54;99550.28;;;1.89;96.90
54270;BME280;40181;51.560;13.000;2022-11-23T07:38:27;99548.69;;;1.92;97.19
54270;BME280;40181;51.560;13.000;2022-11-23T07:40:57;99552.94;;;1.90;97.08
54270;BME280;40181;51.560;13.000;2022-11-23T07:43:28;99563.00;;;1.81;97.94
54270;BME280;40181;51.560;13.000;2022-11-23T07:45:57;99565.22;;;1.70;98.31
54270;BME280;40181;51.560;13.000;2022-11-23T07:48:29;99569.25;;;1.60;98.87
54270;BME280;40181;51.560;13.000;2022-11-23T07:50:58;99565.13;;;1.67;98.86
54270;BME280;40181;51.560;13.000;2022-11-23T07:53:28;99565.03;;;1.64;99.23
54270;BME280;40181;51.560;13.000;2022-11-23T07:55:58;99564.31;;;1.68;99.18
54270;BME280;40181;51.560;13.000;2022-11-23T07:58:28;99563.47;;;1.69;99.85
54270;BME280;40181;51.560;13.000;2022-11-23T08:00:57;99571.00;;;1.61;100.00
54270;BME280;40181;51.560;13.000;2022-11-23T08:03:30;99566.28;;;1.75;100.00
54270;BME280;40181;51.560;13.000;2022-11-23T08:05:59;99572.53;;;1.82;100.00
54270;BME280;40181;51.560;13.000;2022-11-23T08:08:29;99575.69;;;1.99;99.40
54270;BME280;40181;51.560;13.000;2022-11-23T08:10:59;99566.94;;;1.96;99.21
54270;BME280;40181;51.560;13.000;2022-11-23T08:13:28;99565.34;;;2.01;99.82
54270;BME280;40181;51.560;13.000;2022-11-23T08:15:59;99565.41;;;2.02;99.64
54270;BME280;40181;51.560;13.000;2022-11-23T08:18:32;99570.69;;;2.05;99.17
54270;BME280;40181;51.560;13.000;2022-11-23T08:21:02;99578.66;;;2.12;99.29
54270;BME280;40181;51.560;13.000;2022-11-23T08:23:32;99575.44;;;2.19;98.96
54270;BME280;40181;51.560;13.000;2022-11-23T08:26:02;99576.34;;;2.21;99.34
54270;BME280;40181;51.560;13.000;2022-11-23T08:28:31;99578.38;;;2.30;99.16
54270;BME280;40181;51.560;13.000;2022-11-23T08:31:06;99561.16;;;2.32;99.09
54270;BME280;40181;51.560;13.000;2022-11-23T08:33:38;99563.75;;;2.33;99.70
54270;BME280;40181;51.560;13.000;2022-11-23T08:36:08;99579.72;;;2.46;99.46
54270;BME280;40181;51.560;13.000;2022-11-23T08:38:38;99579.75;;;2.47;98.76
54270;BME280;40181;51.560;13.000;2022-11-23T08:41:08;99581.00;;;2.60;98.39
54270;BME280;40181;51.560;13.000;2022-11-23T08:43:37;99582.78;;;2.61;98.49
54270;BME280;40181;51.560;13.000;2022-11-23T08:46:07;99573.53;;;2.71;98.44
54270;BME280;40181;51.560;13.000;2022-11-23T08:48:39;99580.75;;;2.82;98.00
54270;BME280;40181;51.560;13.000;2022-11-23T08:51:09;99567.81;;;2.83;97.65
54270;BME280;40181;51.560;13.000;2022-11-23T08:53:38;99569.78;;;2.92;97.59
54270;BME280;40181;51.560;13.000;2022-11-23T08:56:09;99565.69;;;3.00;97.38
54270;BME280;40181;51.560;13.000;2022-11-23T08:58:38;99573.72;;;3.08;97.59
54270;BME280;40181;51.560;13.000;2022-11-23T09:01:08;99572.16;;;3.15;97.40
54270;BME280;40181;51.560;13.000;2022-11-23T09:03:40;99566.34;;;3.24;97.43
54270;BME280;40181;51.560;13.000;2022-11-23T09:06:10;99567.16;;;3.23;97.56
54270;BME280;40181;51.560;13.000;2022-11-23T09:08:40;99570.97;;;3.34;97.82
54270;BME280;40181;51.560;13.000;2022-11-23T09:11:11;99571.09;;;3.40;97.54
54270;BME280;40181;51.560;13.000;2022-11-23T09:13:41;99564.41;;;3.49;98.00
54270;BME280;40181;51.560;13.000;2022-11-23T09:16:10;99569.88;;;3.59;98.09
54270;BME280;40181;51.560;13.000;2022-11-23T09:18:42;99568.28;;;3.65;97.95
54270;BME280;40181;51.560;13.000;2022-11-23T09:21:14;99556.31;;;3.71;98.39
54270;BME280;40181;51.560;13.000;2022-11-23T09:23:43;99569.44;;;3.76;98.35
54270;BME280;40181;51.560;13.000;2022-11-23T09:26:12;99567.91;;;3.86;98.09
54270;BME280;40181;51.560;13.000;2022-11-23T09:28:42;99561.25;;;3.96;97.73
54270;BME280;40181;51.560;13.000;2022-11-23T09:31:11;99567.41;;;3.99;98.02
54270;BME280;40181;51.560;13.000;2022-11-23T09:33:43;99561.50;;;4.07;97.73
54270;BME280;40181;51.560;13.000;2022-11-23T09:36:13;99565.00;;;4.09;97.25
54270;BME280;40181;51.560;13.000;2022-11-23T09:38:42;99556.44;;;4.13;97.18
54270;BME280;40181;51.560;13.000;2022-11-23T09:41:24;99553.97;;;4.19;97.79
54270;BME280;40181;51.560;13.000;2022-11-23T09:44:34;99555.81;;;4.23;97.43
54270;BME280;40181;51.560;13.000;2022-11-23T09:47:22;99561.16;;;4.29;96.88
54270;BME280;40181;51.560;13.000;2022-11-23T09:50:15;99556.16;;;4.39;95.80
54270;BME280;40181;51.560;13.000;2022-11-23T09:52:49;99552.81;;;4.45;95.19
54270;BME280;40181;51.560;13.000;2022-11-23T09:55:37;99552.69;;;4.38;95.40
54270;BME280;40181;51.560;13.000;2022-11-23T09:58:12;99545.84;;;4.42;95.12
54270;BME280;40181;51.560;13.000;2022-11-23T10:00:46;99545.94;;;4.47;94.87
54270;BME280;40181;51.560;13.000;2022-11-23T10:03:18;99554.50;;;4.42;94.89
54270;BME280;40181;51.560;13.000;2022-11-23T10:05:57;99543.25;;;4.42;95.26
54270;BME280;40181;51.560;13.000;2022-11-23T10:08:37;99537.25;;;4.46;94.74
54270;BME280;40181;51.560;13.000;2022-11-23T10:11:28;99551.25;;;4.51;94.41
54270;BME280;40181;51.560;13.000;2022-11-23T10:14:14;99541.69;;;4.50;94.72
54270;BME280;40181;51.560;13.000;2022-11-23T10:16:58;99546.88;;;4.50;94.74
54270;BME280;40181;51.560;13.000;2022-11-23T10:19:43;99544.41;;;4.56;95.06
54270;BME280;40181;51.560;13.000;2022-11-23T10:22:26;99545.38;;;4.62;94.69
54270;BME280;40181;51.560;13.000;2022-11-23T10:25:07;99552.44;;;4.67;93.87
54270;BME280;40181;51.560;13.000;2022-11-23T10:27:41;99541.22;;;4.70;94.25
54270;BME280;40181;51.560;13.000;2022-11-23T10:30:13;99541.97;;;4.64;94.45
54270;BME280;40181;51.560;13.000;2022-11-23T10:32:47;99548.03;;;4.65;94.15
54270;BME280;40181;51.560;13.000;2022-11-23T10:35:24;99553.16;;;4.60;94.22
54270;BME280;40181;51.560;13.000;2022-11-23T10:38:08;99546.22;;;4.61;94.20
54270;BME280;40181;51.560;13.000;2022-11-23T10:40:40;99530.53;;;4.56;94.42
54270;BME280;40181;51.560;13.000;2022-11-23T10:43:15;99533.22;;;4.61;94.93
54270;BME280;40181;51.560;13.000;2022-11-23T10:45:49;99533.44;;;4.71;94.93
54270;BME280;40181;51.560;13.000;2022-11-23T10:48:33;99541.28;;;4.73;94.62
54270;BME280;40181;51.560;13.000;2022-11-23T10:51:14;99539.63;;;4.77;94.18
54270;BME280;40181;51.560;13.000;2022-11-23T10:53:52;99535.16;;;4.71;94.36
54270;BME280;40181;51.560;13.000;2022-11-23T10:56:24;99532.63;;;4.74;94.84
54270;BME280;40181;51.560;13.000;2022-11-23T10:58:54;99538.91;;;4.85;94.70
54270;BME280;40181;51.560;13.000;2022-11-23T11:01:25;99526.88;;;4.91;94.90
54270;BME280;40181;51.560;13.000;2022-11-23T11:04:00;99527.97;;;5.02;94.93
54270;BME280;40181;51.560;13.000;2022-11-23T11:06:32;99543.84;;;5.15;94.54
54270;BME280;40181;51.560;13.000;2022-11-23T11:09:05;99530.88;;;5.18;94.32
54270;BME280;40181;51.560;13.000;2022-11-23T11:11:47;99529.25;;;5.24;94.34
54270;BME280;40181;51.560;13.000;2022-11-23T11:14:21;99531.09;;;5.30;94.54
54270;BME280;40181;51.560;13.000;2022-11-23T11:16:53;99526.03;;;5.38;94.33
54270;BME280;40181;51.560;13.000;2022-11-23T11:19:26;99525.13;;;5.37;94.06
54270;BME280;40181;51.560;13.000;2022-11-23T11:21:58;99525.09;;;5.34;94.21
54270;BME280;40181;51.560;13.000;2022-11-23T11:24:32;99531.28;;;5.41;94.37
54270;BME280;40181;51.560;13.000;2022-11-23T11:27:11;99520.81;;;5.39;93.93
54270;BME280;40181;51.560;13.000;2022-11-23T11:29:46;99515.56;;;5.36;93.97
54270;BME280;40181;51.560;13.000;2022-11-23T11:32:21;99522.59;;;5.40;93.71
54270;BME280;40181;51.560;13.000;2022-11-23T11:34:56;99528.97;;;5.57;93.73
54270;BME280;40181;51.560;13.000;2022-11-23T11:37:31;99523.63;;;6.03;93.11
54270;BME280;40181;51.560;13.000;2022-11-23T11:40:16;99527.53;;;6.31;92.59
54270;BME280;40181;51.560;13.000;2022-11-23T11:42:52;99528.78;;;6.60;90.77
54270;BME280;40181;51.560;13.000;2022-11-23T11:45:25;99518.28;;;6.55;90.49
54270;BME280;40181;51.560;13.000;2022-11-23T11:48:01;99524.38;;;6.56;89.77
54270;BME280;40181;51.560;13.000;2022-11-23T11:50:39;99519.19;;;6.60;89.68
54270;BME280;40181;51.560;13.000;2022-11-23T11:53:14;99530.44;;;6.53;89.97
54270;BME280;40181;51.560;13.000;2022-11-23T11:55:52;99528.63;;;6.49;89.07
54270;BME280;40181;51.560;13.000;2022-11-23T11:58:24;99520.72;;;6.43;89.20
54270;BME280;40181;51.560;13.000;2022-11-23T12:00:55;99516.59;;;6.60;89.48
54270;BME280;40181;51.560;13.000;2022-11-23T12:03:38;99520.25;;;6.72;89.08
54270;BME280;40181;51.560;13.000;2022-11-23T12:06:14;99520.69;;;7.12;88.42
54270;BME280;40181;51.560;13.000;2022-11-23T12:08:51;99524.38;;;7.33;87.94
54270;BME280;40181;51.560;13.000;2022-11-23T12:11:28;99511.31;;;7.34;86.30
54270;BME280;40181;51.560;13.000;2022-11-23T12:14:00;99526.16;;;7.37;86.61
54270;BME280;40181;51.560;13.000;2022-11-23T12:16:35;99520.88;;;7.31;86.79
54270;BME280;40181;51.560;13.000;2022-11-23T12:19:16;99524.47;;;7.44;85.94
54270;BME280;40181;51.560;13.000;2022-11-23T12:25:15;99527.88;;;7.33;86.59
54270;BME280;40181;51.560;13.000;2022-11-23T12:27:59;99523.41;;;7.23;86.50
54270;BME280;40181;51.560;13.000;2022-11-23T12:30:48;99523.50;;;7.32;86.90
54270;BME280;40181;51.560;13.000;2022-11-23T12:33:48;99519.31;;;7.52;86.37
54270;BME280;40181;51.560;13.000;2022-11-23T12:36:40;99514.00;;;7.42;85.70
54270;BME280;40181;51.560;13.000;2022-11-23T12:40:04;99516.50;;;7.30;85.86
54270;BME280;40181;51.560;13.000;2022-11-23T12:42:59;99514.72;;;7.27;86.11
54270;BME280;40181;51.560;13.000;2022-11-23T12:45:55;99513.13;;;7.39;85.82
54270;BME280;40181;51.560;13.000;2022-11-23T12:48:44;99506.13;;;7.36;86.62
54270;BME280;40181;51.560;13.000;2022-11-23T12:51:26;99517.47;;;7.40;85.06
54270;BME280;40181;51.560;13.000;2022-11-23T12:54:24;99511.59;;;7.64;85.42
54270;BME280;40181;51.560;13.000;2022-11-23T12:57:08;99510.09;;;7.93;84.69
54270;BME280;40181;51.560;13.000;2022-11-23T12:59:49;99508.44;;;8.07;83.98
54270;BME280;40181;51.560;13.000;2022-11-23T13:06:11;99504.22;;;8.34;83.75
54270;BME280;40181;51.560;13.000;2022-11-23T13:09:15;99511.97;;;8.19;81.28
54270;BME280;40181;51.560;13.000;2022-11-23T13:12:23;99504.84;;;7.91;81.28
54270;BME280;40181;51.560;13.000;2022-11-23T13:15:14;99512.66;;;7.86;81.88
54270;BME280;40181;51.560;13.000;2022-11-23T13:17:56;99505.78;;;8.02;82.72
54270;BME280;40181;51.560;13.000;2022-11-23T13:20:48;99504.84;;;7.93;82.78
54270;BME280;40181;51.560;13.000;2022-11-23T13:23:34;99503.91;;;7.86;82.54
54270;BME280;40181;51.560;13.000;2022-11-23T13:26:17;99512.59;;;7.80;82.37
54270;BME280;40181;51.560;13.000;2022-11-23T13:28:49;99516.97;;;7.80;82.70
54270;BME280;40181;51.560;13.000;2022-11-23T13:31:26;99511.50;;;7.53;84.72
54270;BME280;40181;51.560;13.000;2022-11-23T13:33:58;99513.09;;;7.34;85.63
54270;BME280;40181;51.560;13.000;2022-11-23T13:36:40;99511.25;;;7.28;86.21
54270;BME280;40181;51.560;13.000;2022-11-23T13:42:34;99516.31;;;7.08;86.69